createdAt,value
2022-11-10T00:08:18.960Z,98818.48
2022-11-10T00:18:46.470Z,98821.09
2022-11-10T00:29:13.788Z,98818.16
2022-11-10T00:39:41.032Z,98813.14
2022-11-10T00:50:09.900Z,98815.92
2022-11-10T01:00:37.455Z,98830.31
2022-11-10T01:11:09.119Z,98842.80
2022-11-10T01:21:36.347Z,98845.92
2022-11-10T01:32:03.622Z,98852.17
2022-11-10T01:42:45.372Z,98857.55
2022-11-10T01:53:18.174Z,98860.84
2022-11-10T02:03:50.363Z,98872.83
2022-11-10T02:14:18.494Z,98876.11
2022-11-10T02:24:45.858Z,98881.13
2022-11-10T02:35:13.102Z,98889.45
2022-11-10T02:45:42.307Z,98894.33
2022-11-10T02:56:10.647Z,98898.66
2022-11-10T03:06:37.983Z,98912.89
2022-11-10T03:17:05.336Z,98915.31
2022-11-10T03:27:32.674Z,98927.11
2022-11-10T03:38:00.145Z,98928.84
2022-11-10T03:48:27.392Z,98937.00
2022-11-10T03:58:54.597Z,98928.84
2022-11-10T04:09:21.881Z,98936.30
2022-11-10T04:19:49.200Z,98951.04
2022-11-10T04:30:16.882Z,98956.41
2022-11-10T04:40:44.209Z,98974.12
2022-11-10T04:51:12.698Z,98984.53
2022-11-10T05:01:40.090Z,98992.52
2022-11-10T05:12:07.630Z,98995.64
2022-11-10T05:22:35.359Z,99010.56
2022-11-10T05:33:03.049Z,99016.83
2022-11-10T05:43:30.425Z,99030.52
2022-11-10T05:53:57.931Z,99051.36
2022-11-10T06:04:25.552Z,99074.11
2022-11-10T06:14:53.007Z,99097.20
2022-11-10T06:25:20.449Z,99111.44
2022-11-10T06:35:47.800Z,99122.55
2022-11-10T06:46:15.040Z,99136.25
2022-11-10T06:56:42.325Z,99153.80
2022-11-10T07:07:10.071Z,99171.00
2022-11-10T07:17:41.977Z,99180.73
2022-11-10T07:28:11.519Z,99201.56
2022-11-10T07:38:38.857Z,99208.88
2022-11-10T07:49:06.252Z,99213.57
2022-11-10T07:59:33.601Z,99233.89
2022-11-10T08:10:00.917Z,99257.88
2022-11-10T08:20:28.295Z,99265.87
2022-11-10T08:30:56.056Z,99273.00
2022-11-10T08:41:23.548Z,99283.96
2022-11-10T08:51:50.907Z,99300.48
2022-11-10T09:02:18.248Z,99318.73
2022-11-10T09:12:45.592Z,99330.38
2022-11-10T09:23:15.415Z,99344.15
2022-11-10T09:33:42.796Z,99353.38
2022-11-10T09:44:17.779Z,99372.52
2022-11-10T09:54:50.311Z,99385.40
2022-11-10T10:05:36.077Z,99387.66
2022-11-10T10:16:13.080Z,99396.34
2022-11-10T10:26:43.451Z,99408.86
2022-11-10T10:37:23.925Z,99419.85
2022-11-10T10:47:52.706Z,99429.79
2022-11-10T10:58:26.616Z,99437.45
2022-11-10T11:09:00.478Z,99440.06
2022-11-10T11:19:31.810Z,99445.11
2022-11-10T11:30:13.284Z,99452.08
2022-11-10T11:40:49.642Z,99453.30
2022-11-10T11:51:23.679Z,99453.98
2022-11-10T12:02:11.555Z,99459.20
2022-11-10T12:12:59.260Z,99468.59
2022-11-10T12:23:37.114Z,99469.63
2022-11-10T12:34:11.649Z,99465.77
2022-11-10T12:44:44.586Z,99469.26
2022-11-10T12:55:15.888Z,99482.84
2022-11-10T13:05:45.569Z,99488.06
2022-11-10T13:16:33.232Z,99496.08
2022-11-10T13:27:02.090Z,99500.09
2022-11-10T13:37:50.875Z,99509.67
2022-11-10T13:48:28.078Z,99516.64
2022-11-10T13:58:55.956Z,99533.55
2022-11-10T14:09:32.239Z,99556.39
2022-11-10T14:20:00.193Z,99574.50
2022-11-10T14:30:26.725Z,99579.39
2022-11-10T14:40:57.772Z,99578.34
2022-11-10T14:51:25.671Z,99604.45
2022-11-10T15:01:56.080Z,99619.42
2022-11-10T15:12:29.515Z,99626.18
2022-11-10T15:22:58.365Z,99643.23
2022-11-10T15:33:28.429Z,99657.85
2022-11-10T15:43:55.813Z,99669.84
2022-11-10T15:54:26.785Z,99679.75
2022-11-10T16:04:59.728Z,99695.94
2022-11-10T16:15:27.643Z,99715.50
2022-11-10T16:25:57.441Z,99727.59
2022-11-10T16:36:28.472Z,99746.27
2022-11-10T16:46:57.490Z,99752.61
2022-11-10T16:57:25.120Z,99767.11
2022-11-10T17:07:52.590Z,99794.65
2022-11-10T17:18:24.771Z,99823.23
2022-11-10T17:28:52.170Z,99830.58
2022-11-10T17:39:20.416Z,99848.37
2022-11-10T17:49:47.947Z,99863.32
2022-11-10T18:00:19.088Z,99875.48
2022-11-10T18:10:49.931Z,99885.28
2022-11-10T18:21:17.389Z,99892.34
2022-11-10T18:31:44.958Z,99890.70
2022-11-10T18:42:12.721Z,99888.66
2022-11-10T18:52:40.055Z,99891.65
2022-11-10T19:03:07.485Z,99902.30
2022-11-10T19:13:35.028Z,99911.16
2022-11-10T19:24:02.341Z,99923.64
2022-11-10T19:34:31.637Z,99932.19
2022-11-10T19:44:59.123Z,99948.96
2022-11-10T19:55:26.456Z,99973.23
2022-11-10T20:06:01.826Z,99981.80
2022-11-10T20:16:29.265Z,99994.19
2022-11-10T20:26:56.585Z,100005.55
2022-11-10T20:37:24.009Z,100022.11
2022-11-10T20:47:52.983Z,100016.11
2022-11-10T20:58:20.316Z,100007.49
2022-11-10T21:08:47.586Z,100014.95
2022-11-10T21:19:14.895Z,100024.30
2022-11-10T21:29:42.481Z,100029.23
2022-11-10T21:40:11.703Z,100029.17
2022-11-10T21:50:39.090Z,100042.13
2022-11-10T22:01:08.904Z,100051.30
2022-11-10T22:11:53.732Z,100042.27
2022-11-10T22:22:20.988Z,100051.67
2022-11-10T22:32:48.333Z,100055.29
2022-11-10T22:43:33.383Z,100054.67
2022-11-10T22:54:01.154Z,100048.55
2022-11-10T23:04:28.564Z,100033.20
2022-11-10T23:14:55.894Z,100031.48
2022-11-10T23:25:23.257Z,100035.73
2022-11-10T23:35:50.517Z,100045.83
2022-11-10T23:46:18.074Z,100057.59
2022-11-10T23:56:45.354Z,100066.66
